sensor_id;sensor_type;location;lat;lon;timestamp;temperature;humidity
3308;DHT22;1666;48.898;9.182;2023-09-19T00:01:00;17.80;1.00
3308;DHT22;1666;48.898;9.182;2023-09-19T00:03:33;17.70;1.00
3308;DHT22;1666;48.898;9.182;2023-09-19T00:06:05;17.80;1.00
3308;DHT22;1666;48.898;9.182;2023-09-19T00:08:36;17.80;1.00
3308;DHT22;1666;48.898;9.182;2023-09-19T00:11:08;17.70;4.30
3308;DHT22;1666;48.898;9.182;2023-09-19T00:13:39;17.60;6.70
3308;DHT22;1666;48.898;9.182;2023-09-19T00:16:10;17.60;8.30
3308;DHT22;1666;48.898;9.182;2023-09-19T00:18:41;17.60;9.10
3308;DHT22;1666;48.898;9.182;2023-09-19T00:21:11;17.60;9.40
3308;DHT22;1666;48.898;9.182;2023-09-19T00:23:42;17.60;9.50
3308;DHT22;1666;48.898;9.182;2023-09-19T00:26:14;17.60;7.80
3308;DHT22;1666;48.898;9.182;2023-09-19T00:28:45;17.60;8.20
3308;DHT22;1666;48.898;9.182;2023-09-19T00:31:15;17.50;6.90
3308;DHT22;1666;48.898;9.182;2023-09-19T00:33:45;17.50;9.70
3308;DHT22;1666;48.898;9.182;2023-09-19T00:36:15;17.50;10.40
3308;DHT22;1666;48.898;9.182;2023-09-19T00:38:45;17.50;12.20
3308;DHT22;1666;48.898;9.182;2023-09-19T00:41:18;17.50;10.10
3308;DHT22;1666;48.898;9.182;2023-09-19T00:43:48;17.40;11.60
3308;DHT22;1666;48.898;9.182;2023-09-19T00:46:18;17.40;11.80
3308;DHT22;1666;48.898;9.182;2023-09-19T00:48:48;17.40;10.20
3308;DHT22;1666;48.898;9.182;2023-09-19T00:51:19;17.40;12.50
3308;DHT22;1666;48.898;9.182;2023-09-19T00:53:50;17.40;12.00
3308;DHT22;1666;48.898;9.182;2023-09-19T00:56:23;17.40;14.10
3308;DHT22;1666;48.898;9.182;2023-09-19T00:58:54;17.40;14.00
3308;DHT22;1666;48.898;9.182;2023-09-19T01:01:24;17.40;11.90
3308;DHT22;1666;48.898;9.182;2023-09-19T01:03:55;17.40;15.20
3308;DHT22;1666;48.898;9.182;2023-09-19T01:06:25;17.40;13.80
3308;DHT22;1666;48.898;9.182;2023-09-19T01:08:55;17.40;13.10
3308;DHT22;1666;48.898;9.182;2023-09-19T01:11:33;17.40;11.40
3308;DHT22;1666;48.898;9.182;2023-09-19T01:14:16;17.40;11.70
3308;DHT22;1666;48.898;9.182;2023-09-19T01:16:53;17.30;12.10
3308;DHT22;1666;48.898;9.182;2023-09-19T01:19:52;17.30;10.70
3308;DHT22;1666;48.898;9.182;2023-09-19T01:22:35;17.30;11.10
3308;DHT22;1666;48.898;9.182;2023-09-19T01:25:36;17.40;10.50
3308;DHT22;1666;48.898;9.182;2023-09-19T01:28:30;17.30;10.40
3308;DHT22;1666;48.898;9.182;2023-09-19T01:31:09;17.30;10.40
3308;DHT22;1666;48.898;9.182;2023-09-19T01:33:59;17.30;12.50
3308;DHT22;1666;48.898;9.182;2023-09-19T01:36:33;17.30;9.70
3308;DHT22;1666;48.898;9.182;2023-09-19T01:39:07;17.30;9.20
3308;DHT22;1666;48.898;9.182;2023-09-19T01:41:58;17.30;8.90
3308;DHT22;1666;48.898;9.182;2023-09-19T01:44:39;17.30;11.60
3308;DHT22;1666;48.898;9.182;2023-09-19T01:47:18;17.20;13.40
3308;DHT22;1666;48.898;9.182;2023-09-19T01:49:55;17.20;13.50
3308;DHT22;1666;48.898;9.182;2023-09-19T01:52:28;17.10;13.00
3308;DHT22;1666;48.898;9.182;2023-09-19T01:55:05;17.10;16.90
3308;DHT22;1666;48.898;9.182;2023-09-19T01:57:40;17.00;16.80
3308;DHT22;1666;48.898;9.182;2023-09-19T02:00:13;17.00;17.70
3308;DHT22;1666;48.898;9.182;2023-09-19T02:02:47;16.90;20.40
3308;DHT22;1666;48.898;9.182;2023-09-19T02:05:22;16.90;21.80
3308;DHT22;1666;48.898;9.182;2023-09-19T02:07:54;16.80;22.50
3308;DHT22;1666;48.898;9.182;2023-09-19T02:10:25;16.80;25.00
3308;DHT22;1666;48.898;9.182;2023-09-19T02:12:55;16.80;24.70
3308;DHT22;1666;48.898;9.182;2023-09-19T02:15:26;16.80;25.70
3308;DHT22;1666;48.898;9.182;2023-09-19T02:18:02;16.80;24.80
3308;DHT22;1666;48.898;9.182;2023-09-19T02:20:32;16.70;27.00
3308;DHT22;1666;48.898;9.182;2023-09-19T02:23:03;16.70;27.30
3308;DHT22;1666;48.898;9.182;2023-09-19T02:25:33;16.60;29.30
3308;DHT22;1666;48.898;9.182;2023-09-19T02:28:03;16.60;30.40
3308;DHT22;1666;48.898;9.182;2023-09-19T02:30:33;16.50;34.10
3308;DHT22;1666;48.898;9.182;2023-09-19T02:33:06;16.50;36.40
3308;DHT22;1666;48.898;9.182;2023-09-19T02:35:36;16.40;38.10
3308;DHT22;1666;48.898;9.182;2023-09-19T02:38:06;16.40;40.30
3308;DHT22;1666;48.898;9.182;2023-09-19T02:40:39;16.40;36.60
3308;DHT22;1666;48.898;9.182;2023-09-19T02:43:10;16.40;38.00
3308;DHT22;1666;48.898;9.182;2023-09-19T02:45:40;16.40;41.50
3308;DHT22;1666;48.898;9.182;2023-09-19T02:48:13;16.30;40.30
3308;DHT22;1666;48.898;9.182;2023-09-19T02:50:43;16.40;36.10
3308;DHT22;1666;48.898;9.182;2023-09-19T02:53:13;16.50;34.30
3308;DHT22;1666;48.898;9.182;2023-09-19T02:55:43;16.50;31.50
3308;DHT22;1666;48.898;9.182;2023-09-19T02:58:11;16.50;28.90
3308;DHT22;1666;48.898;9.182;2023-09-19T03:00:42;16.60;25.80
3308;DHT22;1666;48.898;9.182;2023-09-19T03:03:18;16.60;26.30
3308;DHT22;1666;48.898;9.182;2023-09-19T03:05:48;16.60;25.90
3308;DHT22;1666;48.898;9.182;2023-09-19T03:08:21;16.70;23.50
3308;DHT22;1666;48.898;9.182;2023-09-19T03:10:52;16.70;23.60
3308;DHT22;1666;48.898;9.182;2023-09-19T03:13:22;16.70;25.00
3308;DHT22;1666;48.898;9.182;2023-09-19T03:15:54;16.70;20.60
3308;DHT22;1666;48.898;9.182;2023-09-19T03:18:28;16.70;19.50
3308;DHT22;1666;48.898;9.182;2023-09-19T03:20:58;16.80;14.70
3308;DHT22;1666;48.898;9.182;2023-09-19T03:23:29;16.80;15.30
3308;DHT22;1666;48.898;9.182;2023-09-19T03:26:00;16.90;17.90
3308;DHT22;1666;48.898;9.182;2023-09-19T03:28:33;16.80;15.50
3308;DHT22;1666;48.898;9.182;2023-09-19T03:31:05;16.90;17.40
3308;DHT22;1666;48.898;9.182;2023-09-19T03:33:37;16.90;24.00
3308;DHT22;1666;48.898;9.182;2023-09-19T03:36:08;16.80;24.10
3308;DHT22;1666;48.898;9.182;2023-09-19T03:38:38;16.80;28.70
3308;DHT22;1666;48.898;9.182;2023-09-19T03:41:08;16.80;33.20
3308;DHT22;1666;48.898;9.182;2023-09-19T03:43:41;16.70;33.30
3308;DHT22;1666;48.898;9.182;2023-09-19T03:46:11;16.80;36.80
3308;DHT22;1666;48.898;9.182;2023-09-19T03:48:44;16.80;34.70
3308;DHT22;1666;48.898;9.182;2023-09-19T03:51:14;16.70;43.00
3308;DHT22;1666;48.898;9.182;2023-09-19T03:53:44;16.70;51.20
3308;DHT22;1666;48.898;9.182;2023-09-19T03:56:16;16.60;47.50
3308;DHT22;1666;48.898;9.182;2023-09-19T03:58:46;16.60;55.30
3308;DHT22;1666;48.898;9.182;2023-09-19T04:01:16;16.50;52.80
3308;DHT22;1666;48.898;9.182;2023-09-19T04:03:49;16.50;60.90
3308;DHT22;1666;48.898;9.182;2023-09-19T04:06:20;16.60;64.10
3308;DHT22;1666;48.898;9.182;2023-09-19T04:08:50;16.40;55.30
3308;DHT22;1666;48.898;9.182;2023-09-19T04:11:21;16.50;68.50
3308;DHT22;1666;48.898;9.182;2023-09-19T04:13:51;16.50;62.10
3308;DHT22;1666;48.898;9.182;2023-09-19T04:16:21;16.50;67.70
3308;DHT22;1666;48.898;9.182;2023-09-19T04:18:54;16.50;67.90
3308;DHT22;1666;48.898;9.182;2023-09-19T04:21:24;16.50;63.90
3308;DHT22;1666;48.898;9.182;2023-09-19T04:23:55;16.60;68.20
3308;DHT22;1666;48.898;9.182;2023-09-19T04:26:25;16.60;66.40
3308;DHT22;1666;48.898;9.182;2023-09-19T04:28:55;16.60;72.20
3308;DHT22;1666;48.898;9.182;2023-09-19T04:31:25;16.50;75.20
3308;DHT22;1666;48.898;9.182;2023-09-19T04:33:59;16.50;68.40
3308;DHT22;1666;48.898;9.182;2023-09-19T04:36:32;16.50;71.20
3308;DHT22;1666;48.898;9.182;2023-09-19T04:39:03;16.50;74.30
3308;DHT22;1666;48.898;9.182;2023-09-19T04:41:35;16.50;71.00
3308;DHT22;1666;48.898;9.182;2023-09-19T04:44:06;16.50;71.80
3308;DHT22;1666;48.898;9.182;2023-09-19T04:46:35;16.40;64.10
3308;DHT22;1666;48.898;9.182;2023-09-19T04:49:08;16.40;61.70
3308;DHT22;1666;48.898;9.182;2023-09-19T04:51:38;16.40;61.60
3308;DHT22;1666;48.898;9.182;2023-09-19T04:54:09;16.50;60.40
3308;DHT22;1666;48.898;9.182;2023-09-19T04:56:40;16.50;68.20
3308;DHT22;1666;48.898;9.182;2023-09-19T04:59:10;16.50;65.50
3308;DHT22;1666;48.898;9.182;2023-09-19T05:01:41;16.50;74.70
3308;DHT22;1666;48.898;9.182;2023-09-19T05:04:14;16.50;88.00
3308;DHT22;1666;48.898;9.182;2023-09-19T05:06:44;16.30;96.80
3308;DHT22;1666;48.898;9.182;2023-09-19T05:09:14;16.30;99.90
3308;DHT22;1666;48.898;9.182;2023-09-19T05:11:46;16.30;99.90
3308;DHT22;1666;48.898;9.182;2023-09-19T05:14:18;16.30;99.90
3308;DHT22;1666;48.898;9.182;2023-09-19T05:16:49;16.20;99.90
3308;DHT22;1666;48.898;9.182;2023-09-19T05:19:22;16.10;99.90
3308;DHT22;1666;48.898;9.182;2023-09-19T05:21:52;16.00;99.90
3308;DHT22;1666;48.898;9.182;2023-09-19T05:24:22;15.90;99.90
3308;DHT22;1666;48.898;9.182;2023-09-19T05:26:53;16.00;99.90
3308;DHT22;1666;48.898;9.182;2023-09-19T05:29:23;15.80;99.90
3308;DHT22;1666;48.898;9.182;2023-09-19T05:31:53;15.80;99.90
3308;DHT22;1666;48.898;9.182;2023-09-19T05:34:26;15.80;99.90
3308;DHT22;1666;48.898;9.182;2023-09-19T05:36:57;15.70;99.90
3308;DHT22;1666;48.898;9.182;2023-09-19T05:39:27;15.60;99.90
3308;DHT22;1666;48.898;9.182;2023-09-19T05:41:57;15.70;99.90
3308;DHT22;1666;48.898;9.182;2023-09-19T05:44:27;15.70;99.90
3308;DHT22;1666;48.898;9.182;2023-09-19T05:46:57;15.70;99.90
3308;DHT22;1666;48.898;9.182;2023-09-19T05:49:29;15.80;99.90
3308;DHT22;1666;48.898;9.182;2023-09-19T05:52:00;15.80;99.90
3308;DHT22;1666;48.898;9.182;2023-09-19T05:54:30;15.80;99.90
3308;DHT22;1666;48.898;9.182;2023-09-19T05:57:00;15.90;99.90
3308;DHT22;1666;48.898;9.182;2023-09-19T05:59:30;15.90;99.90
3308;DHT22;1666;48.898;9.182;2023-09-19T06:02:01;15.90;99.90
3308;DHT22;1666;48.898;9.182;2023-09-19T06:04:35;16.00;99.90
3308;DHT22;1666;48.898;9.182;2023-09-19T06:07:08;16.00;99.90
3308;DHT22;1666;48.898;9.182;2023-09-19T06:09:38;15.80;99.90
3308;DHT22;1666;48.898;9.182;2023-09-19T06:12:08;15.60;99.90
3308;DHT22;1666;48.898;9.182;2023-09-19T06:14:39;15.60;99.90
3308;DHT22;1666;48.898;9.182;2023-09-19T06:17:10;15.60;99.90
3308;DHT22;1666;48.898;9.182;2023-09-19T06:19:42;15.60;99.90
3308;DHT22;1666;48.898;9.182;2023-09-19T06:22:14;15.70;99.90
3308;DHT22;1666;48.898;9.182;2023-09-19T06:24:45;15.70;99.90
3308;DHT22;1666;48.898;9.182;2023-09-19T06:27:15;15.70;99.90
3308;DHT22;1666;48.898;9.182;2023-09-19T06:29:45;15.80;99.90
3308;DHT22;1666;48.898;9.182;2023-09-19T06:32:15;15.80;99.90
3308;DHT22;1666;48.898;9.182;2023-09-19T06:34:51;15.80;94.50
3308;DHT22;1666;48.898;9.182;2023-09-19T06:37:22;15.90;96.90
3308;DHT22;1666;48.898;9.182;2023-09-19T06:39:52;15.90;93.30
3308;DHT22;1666;48.898;9.182;2023-09-19T06:42:23;16.00;90.20
3308;DHT22;1666;48.898;9.182;2023-09-19T06:44:55;16.00;74.80
3308;DHT22;1666;48.898;9.182;2023-09-19T06:47:25;16.00;75.50
3308;DHT22;1666;48.898;9.182;2023-09-19T06:49:58;16.10;56.00
3308;DHT22;1666;48.898;9.182;2023-09-19T06:52:29;16.30;56.10
3308;DHT22;1666;48.898;9.182;2023-09-19T06:55:00;16.40;46.40
3308;DHT22;1666;48.898;9.182;2023-09-19T06:57:30;16.40;30.70
3308;DHT22;1666;48.898;9.182;2023-09-19T07:00:00;16.60;42.50
3308;DHT22;1666;48.898;9.182;2023-09-19T07:02:34;16.70;25.20
3308;DHT22;1666;48.898;9.182;2023-09-19T07:05:07;16.60;19.80
3308;DHT22;1666;48.898;9.182;2023-09-19T07:07:37;16.80;21.60
3308;DHT22;1666;48.898;9.182;2023-09-19T07:10:09;16.80;24.30
3308;DHT22;1666;48.898;9.182;2023-09-19T07:12:40;16.90;17.90
3308;DHT22;1666;48.898;9.182;2023-09-19T07:15:10;16.80;17.20
3308;DHT22;1666;48.898;9.182;2023-09-19T07:17:40;16.90;20.20
3308;DHT22;1666;48.898;9.182;2023-09-19T07:20:13;16.70;8.60
3308;DHT22;1666;48.898;9.182;2023-09-19T07:22:43;16.80;18.20
3308;DHT22;1666;48.898;9.182;2023-09-19T07:25:13;16.90;27.70
3308;DHT22;1666;48.898;9.182;2023-09-19T07:27:43;17.00;24.60
3308;DHT22;1666;48.898;9.182;2023-09-19T07:30:13;17.00;21.50
3308;DHT22;1666;48.898;9.182;2023-09-19T07:32:43;17.10;20.70
3308;DHT22;1666;48.898;9.182;2023-09-19T07:35:16;16.80;11.90
3308;DHT22;1666;48.898;9.182;2023-09-19T07:37:47;17.00;18.90
3308;DHT22;1666;48.898;9.182;2023-09-19T07:40:19;17.10;13.60
3308;DHT22;1666;48.898;9.182;2023-09-19T07:42:50;17.20;6.80
3308;DHT22;1666;48.898;9.182;2023-09-19T07:45:21;17.30;9.30
3308;DHT22;1666;48.898;9.182;2023-09-19T07:47:52;17.20;7.00
3308;DHT22;1666;48.898;9.182;2023-09-19T07:50:25;17.40;8.60
3308;DHT22;1666;48.898;9.182;2023-09-19T07:52:56;17.40;5.60
3308;DHT22;1666;48.898;9.182;2023-09-19T07:55:26;17.20;8.20
3308;DHT22;1666;48.898;9.182;2023-09-19T07:57:56;17.20;10.90
3308;DHT22;1666;48.898;9.182;2023-09-19T08:00:26;17.10;3.10
3308;DHT22;1666;48.898;9.182;2023-09-19T08:02:56;17.20;5.50
3308;DHT22;1666;48.898;9.182;2023-09-19T08:05:37;17.00;1.00
3308;DHT22;1666;48.898;9.182;2023-09-19T08:08:08;17.20;1.00
3308;DHT22;1666;48.898;9.182;2023-09-19T08:10:40;17.60;5.80
3308;DHT22;1666;48.898;9.182;2023-09-19T08:13:13;17.60;1.00
3308;DHT22;1666;48.898;9.182;2023-09-19T08:15:44;17.60;1.00
3308;DHT22;1666;48.898;9.182;2023-09-19T08:18:15;17.90;1.00
3308;DHT22;1666;48.898;9.182;2023-09-19T08:20:52;17.90;1.00
3308;DHT22;1666;48.898;9.182;2023-09-19T08:23:22;17.90;1.00
3308;DHT22;1666;48.898;9.182;2023-09-19T08:25:56;18.00;1.00
3308;DHT22;1666;48.898;9.182;2023-09-19T08:28:34;18.00;1.00
3308;DHT22;1666;48.898;9.182;2023-09-19T08:31:04;18.10;1.00
3308;DHT22;1666;48.898;9.182;2023-09-19T08:33:37;18.10;1.00
3308;DHT22;1666;48.898;9.182;2023-09-19T08:36:11;18.00;1.00
3308;DHT22;1666;48.898;9.182;2023-09-19T08:38:41;18.20;1.00
3308;DHT22;1666;48.898;9.182;2023-09-19T08:41:11;18.60;1.00
3308;DHT22;1666;48.898;9.182;2023-09-19T08:43:41;18.70;1.00
3308;DHT22;1666;48.898;9.182;2023-09-19T08:46:14;18.70;1.00
3308;DHT22;1666;48.898;9.182;2023-09-19T08:48:46;18.70;1.00
3308;DHT22;1666;48.898;9.182;2023-09-19T08:51:29;19.00;1.00
3308;DHT22;1666;48.898;9.182;2023-09-19T08:54:04;18.90;1.00
3308;DHT22;1666;48.898;9.182;2023-09-19T08:56:37;19.20;1.00
3308;DHT22;1666;48.898;9.182;2023-09-19T08:59:09;19.00;1.00
3308;DHT22;1666;48.898;9.182;2023-09-19T09:01:41;19.10;1.00
3308;DHT22;1666;48.898;9.182;2023-09-19T09:04:11;19.00;1.00
3308;DHT22;1666;48.898;9.182;2023-09-19T09:06:45;19.20;1.00
3308;DHT22;1666;48.898;9.182;2023-09-19T09:09:15;19.60;1.00
3308;DHT22;1666;48.898;9.182;2023-09-19T09:11:48;20.10;1.00
3308;DHT22;1666;48.898;9.182;2023-09-19T09:14:20;19.80;1.00
3308;DHT22;1666;48.898;9.182;2023-09-19T09:16:51;20.10;1.00
3308;DHT22;1666;48.898;9.182;2023-09-19T09:19:23;20.00;1.00
3308;DHT22;1666;48.898;9.182;2023-09-19T09:22:06;20.40;1.00
3308;DHT22;1666;48.898;9.182;2023-09-19T09:24:37;20.70;1.00
3308;DHT22;1666;48.898;9.182;2023-09-19T09:27:07;20.70;1.00
3308;DHT22;1666;48.898;9.182;2023-09-19T09:29:42;20.40;1.00
3308;DHT22;1666;48.898;9.182;2023-09-19T09:32:20;20.80;1.00
3308;DHT22;1666;48.898;9.182;2023-09-19T09:34:52;21.10;1.00
3308;DHT22;1666;48.898;9.182;2023-09-19T09:37:29;20.60;1.00
3308;DHT22;1666;48.898;9.182;2023-09-19T09:40:03;20.50;1.00
3308;DHT22;1666;48.898;9.182;2023-09-19T09:42:47;21.10;1.00
3308;DHT22;1666;48.898;9.182;2023-09-19T09:45:20;21.00;1.00
3308;DHT22;1666;48.898;9.182;2023-09-19T09:47:59;20.90;1.00
3308;DHT22;1666;48.898;9.182;2023-09-19T09:50:31;21.20;1.00
3308;DHT22;1666;48.898;9.182;2023-09-19T09:53:24;21.00;1.00
3308;DHT22;1666;48.898;9.182;2023-09-19T09:55:58;21.00;1.00
3308;DHT22;1666;48.898;9.182;2023-09-19T09:58:30;20.90;1.00
3308;DHT22;1666;48.898;9.182;2023-09-19T10:01:03;20.90;1.00
3308;DHT22;1666;48.898;9.182;2023-09-19T10:03:37;21.00;1.00
3308;DHT22;1666;48.898;9.182;2023-09-19T10:06:13;21.20;1.00
3308;DHT22;1666;48.898;9.182;2023-09-19T10:09:01;21.10;1.00
3308;DHT22;1666;48.898;9.182;2023-09-19T10:11:33;21.20;1.00
3308;DHT22;1666;48.898;9.182;2023-09-19T10:14:04;20.40;1.00
3308;DHT22;1666;48.898;9.182;2023-09-19T10:16:40;20.40;1.00
3308;DHT22;1666;48.898;9.182;2023-09-19T10:19:15;20.70;1.00
3308;DHT22;1666;48.898;9.182;2023-09-19T10:21:45;20.70;1.00
3308;DHT22;1666;48.898;9.182;2023-09-19T10:24:19;20.60;1.00
3308;DHT22;1666;48.898;9.182;2023-09-19T10:26:53;20.70;1.00
3308;DHT22;1666;48.898;9.182;2023-09-19T10:29:24;21.00;1.00
3308;DHT22;1666;48.898;9.182;2023-09-19T10:31:58;21.60;1.00
3308;DHT22;1666;48.898;9.182;2023-09-19T10:34:32;21.80;1.00
3308;DHT22;1666;48.898;9.182;2023-09-19T10:37:04;21.80;1.00
3308;DHT22;1666;48.898;9.182;2023-09-19T10:39:40;21.60;1.00
3308;DHT22;1666;48.898;9.182;2023-09-19T10:42:10;21.40;1.00
3308;DHT22;1666;48.898;9.182;2023-09-19T10:44:45;21.40;1.00
3308;DHT22;1666;48.898;9.182;2023-09-19T10:47:17;21.60;1.00
3308;DHT22;1666;48.898;9.182;2023-09-19T10:49:47;21.80;1.00
3308;DHT22;1666;48.898;9.182;2023-09-19T10:52:21;21.40;1.00
3308;DHT22;1666;48.898;9.182;2023-09-19T10:54:57;21.20;1.00
3308;DHT22;1666;48.898;9.182;2023-09-19T10:57:29;20.60;1.00
3308;DHT22;1666;48.898;9.182;2023-09-19T11:00:01;20.70;1.00
3308;DHT22;1666;48.898;9.182;2023-09-19T11:03:16;20.70;1.00
3308;DHT22;1666;48.898;9.182;2023-09-19T11:06:07;20.60;1.00
3308;DHT22;1666;48.898;9.182;2023-09-19T11:09:01;20.40;1.00
3308;DHT22;1666;48.898;9.182;2023-09-19T11:11:52;20.50;1.00
3308;DHT22;1666;48.898;9.182;2023-09-19T11:14:38;20.50;1.00
3308;DHT22;1666;48.898;9.182;2023-09-19T11:20:23;20.50;1.00
3308;DHT22;1666;48.898;9.182;2023-09-19T11:23:17;20.00;1.00
3308;DHT22;1666;48.898;9.182;2023-09-19T11:25:50;20.20;1.00
3308;DHT22;1666;48.898;9.182;2023-09-19T11:28:32;20.20;1.00
3308;DHT22;1666;48.898;9.182;2023-09-19T11:40:35;21.00;1.00
3308;DHT22;1666;48.898;9.182;2023-09-19T11:43:31;21.00;1.00
3308;DHT22;1666;48.898;9.182;2023-09-19T11:46:04;20.90;1.00
3308;DHT22;1666;48.898;9.182;2023-09-19T11:48:35;20.60;1.00
3308;DHT22;1666;48.898;9.182;2023-09-19T11:51:14;20.90;1.00
3308;DHT22;1666;48.898;9.182;2023-09-19T11:53:47;20.80;1.00
3308;DHT22;1666;48.898;9.182;2023-09-19T11:56:18;21.10;1.00
3308;DHT22;1666;48.898;9.182;2023-09-19T11:58:52;21.30;1.00
3308;DHT22;1666;48.898;9.182;2023-09-19T12:01:30;21.50;1.00
3308;DHT22;1666;48.898;9.182;2023-09-19T12:04:02;21.40;1.00
3308;DHT22;1666;48.898;9.182;2023-09-19T12:06:32;21.40;1.00
3308;DHT22;1666;48.898;9.182;2023-09-19T12:09:06;21.20;1.00
3308;DHT22;1666;48.898;9.182;2023-09-19T12:11:41;21.20;1.00
3308;DHT22;1666;48.898;9.182;2023-09-19T12:14:22;21.10;1.00
3308;DHT22;1666;48.898;9.182;2023-09-19T12:16:53;21.60;1.00
3308;DHT22;1666;48.898;9.182;2023-09-19T12:19:24;21.80;1.00
3308;DHT22;1666;48.898;9.182;2023-09-19T12:21:59;22.10;1.00
3308;DHT22;1666;48.898;9.182;2023-09-19T12:24:32;22.10;1.00
3308;DHT22;1666;48.898;9.182;2023-09-19T12:27:06;22.30;1.00
3308;DHT22;1666;48.898;9.182;2023-09-19T12:29:46;22.30;1.00
3308;DHT22;1666;48.898;9.182;2023-09-19T12:32:17;22.00;1.00
3308;DHT22;1666;48.898;9.182;2023-09-19T12:34:52;22.70;1.00
3308;DHT22;1666;48.898;9.182;2023-09-19T12:37:22;22.90;1.00
3308;DHT22;1666;48.898;9.182;2023-09-19T12:40:05;22.50;1.00
3308;DHT22;1666;48.898;9.182;2023-09-19T12:42:43;23.00;1.00
3308;DHT22;1666;48.898;9.182;2023-09-19T12:45:17;23.10;1.00
3308;DHT22;1666;48.898;9.182;2023-09-19T12:48:18;22.40;1.00
3308;DHT22;1666;48.898;9.182;2023-09-19T12:51:01;22.50;1.00
3308;DHT22;1666;48.898;9.182;2023-09-19T12:53:35;21.90;1.00
3308;DHT22;1666;48.898;9.182;2023-09-19T12:56:09;22.00;1.00
3308;DHT22;1666;48.898;9.182;2023-09-19T12:58:51;21.60;1.00
3308;DHT22;1666;48.898;9.182;2023-09-19T13:01:25;21.90;1.00
3308;DHT22;1666;48.898;9.182;2023-09-19T13:04:13;22.40;1.00
3308;DHT22;1666;48.898;9.182;2023-09-19T13:06:46;22.60;1.00
3308;DHT22;1666;48.898;9.182;2023-09-19T13:09:18;22.70;1.00
3308;DHT22;1666;48.898;9.182;2023-09-19T13:11:48;22.50;1.00
3308;DHT22;1666;48.898;9.182;2023-09-19T13:14:22;22.80;1.00
3308;DHT22;1666;48.898;9.182;2023-09-19T13:16:59;22.90;1.00
3308;DHT22;1666;48.898;9.182;2023-09-19T13:19:39;23.10;1.00
3308;DHT22;1666;48.898;9.182;2023-09-19T13:22:38;23.20;1.00
3308;DHT22;1666;48.898;9.182;2023-09-19T13:25:12;22.70;1.00
3308;DHT22;1666;48.898;9.182;2023-09-19T13:27:47;22.60;1.00
3308;DHT22;1666;48.898;9.182;2023-09-19T13:30:20;23.00;1.00
3308;DHT22;1666;48.898;9.182;2023-09-19T13:33:03;23.10;1.00
3308;DHT22;1666;48.898;9.182;2023-09-19T13:35:34;23.20;1.00
3308;DHT22;1666;48.898;9.182;2023-09-19T13:38:05;23.10;1.00
3308;DHT22;1666;48.898;9.182;2023-09-19T13:40:37;22.70;1.00
3308;DHT22;1666;48.898;9.182;2023-09-19T13:43:09;22.60;1.00
3308;DHT22;1666;48.898;9.182;2023-09-19T13:45:40;22.30;1.00
3308;DHT22;1666;48.898;9.182;2023-09-19T13:48:13;22.40;1.00
3308;DHT22;1666;48.898;9.182;2023-09-19T13:50:44;22.50;1.00
3308;DHT22;1666;48.898;9.182;2023-09-19T13:53:15;22.00;1.00
3308;DHT22;1666;48.898;9.182;2023-09-19T13:55:49;22.20;1.00
3308;DHT22;1666;48.898;9.182;2023-09-19T13:58:19;22.30;1.00
3308;DHT22;1666;48.898;9.182;2023-09-19T14:00:49;22.00;1.00
3308;DHT22;1666;48.898;9.182;2023-09-19T14:03:24;22.20;1.00
3308;DHT22;1666;48.898;9.182;2023-09-19T14:05:56;22.00;1.00
3308;DHT22;1666;48.898;9.182;2023-09-19T14:08:26;22.30;1.00
3308;DHT22;1666;48.898;9.182;2023-09-19T14:10:56;22.10;1.00
3308;DHT22;1666;48.898;9.182;2023-09-19T14:13:26;22.30;1.00
3308;DHT22;1666;48.898;9.182;2023-09-19T14:15:56;22.20;1.00
3308;DHT22;1666;48.898;9.182;2023-09-19T14:18:30;22.20;1.00
3308;DHT22;1666;48.898;9.182;2023-09-19T14:21:05;22.20;1.00
3308;DHT22;1666;48.898;9.182;2023-09-19T14:23:38;22.40;1.00
3308;DHT22;1666;48.898;9.182;2023-09-19T14:26:09;22.20;1.00
3308;DHT22;1666;48.898;9.182;2023-09-19T14:28:39;22.10;1.00
3308;DHT22;1666;48.898;9.182;2023-09-19T14:31:10;21.90;1.00
3308;DHT22;1666;48.898;9.182;2023-09-19T14:33:56;22.00;1.00
3308;DHT22;1666;48.898;9.182;2023-09-19T14:36:26;22.20;1.00
3308;DHT22;1666;48.898;9.182;2023-09-19T14:38:56;22.20;1.00
3308;DHT22;1666;48.898;9.182;2023-09-19T14:41:33;22.20;1.00
3308;DHT22;1666;48.898;9.182;2023-09-19T14:44:10;22.40;1.00
3308;DHT22;1666;48.898;9.182;2023-09-19T14:46:40;22.50;1.00
3308;DHT22;1666;48.898;9.182;2023-09-19T14:49:15;22.50;1.00
3308;DHT22;1666;48.898;9.182;2023-09-19T14:51:47;22.60;1.00
3308;DHT22;1666;48.898;9.182;2023-09-19T14:54:17;22.50;1.00
3308;DHT22;1666;48.898;9.182;2023-09-19T14:56:51;22.60;1.00
3308;DHT22;1666;48.898;9.182;2023-09-19T14:59:33;22.60;1.00
3308;DHT22;1666;48.898;9.182;2023-09-19T15:02:07;22.60;1.00
3308;DHT22;1666;48.898;9.182;2023-09-19T15:04:42;22.80;1.00
3308;DHT22;1666;48.898;9.182;2023-09-19T15:07:14;22.30;1.00
3308;DHT22;1666;48.898;9.182;2023-09-19T15:09:44;22.40;1.00
3308;DHT22;1666;48.898;9.182;2023-09-19T15:12:14;22.50;1.00
3308;DHT22;1666;48.898;9.182;2023-09-19T15:14:44;22.30;1.00
3308;DHT22;1666;48.898;9.182;2023-09-19T15:17:14;22.30;1.00
3308;DHT22;1666;48.898;9.182;2023-09-19T15:19:49;22.40;1.00
3308;DHT22;1666;48.898;9.182;2023-09-19T15:22:20;22.50;1.00
3308;DHT22;1666;48.898;9.182;2023-09-19T15:24:51;22.60;1.00
3308;DHT22;1666;48.898;9.182;2023-09-19T15:27:22;22.30;1.00
3308;DHT22;1666;48.898;9.182;2023-09-19T15:29:52;22.50;1.00
3308;DHT22;1666;48.898;9.182;2023-09-19T15:32:22;22.70;1.00
3308;DHT22;1666;48.898;9.182;2023-09-19T15:34:54;22.70;1.00
3308;DHT22;1666;48.898;9.182;2023-09-19T15:37:25;22.70;1.00
3308;DHT22;1666;48.898;9.182;2023-09-19T15:39:55;22.60;1.00
3308;DHT22;1666;48.898;9.182;2023-09-19T15:42:25;22.50;1.00
3308;DHT22;1666;48.898;9.182;2023-09-19T15:44:58;22.50;1.00
3308;DHT22;1666;48.898;9.182;2023-09-19T15:47:28;22.40;1.00
3308;DHT22;1666;48.898;9.182;2023-09-19T15:50:01;22.30;1.00
3308;DHT22;1666;48.898;9.182;2023-09-19T15:52:31;22.20;1.00
3308;DHT22;1666;48.898;9.182;2023-09-19T15:55:03;22.10;1.00
3308;DHT22;1666;48.898;9.182;2023-09-19T15:57:34;22.10;1.00
3308;DHT22;1666;48.898;9.182;2023-09-19T16:00:07;21.90;1.00
3308;DHT22;1666;48.898;9.182;2023-09-19T16:02:41;21.90;1.00
3308;DHT22;1666;48.898;9.182;2023-09-19T16:05:14;21.90;1.00
3308;DHT22;1666;48.898;9.182;2023-09-19T16:07:44;21.80;1.00
3308;DHT22;1666;48.898;9.182;2023-09-19T16:10:15;21.80;1.00
3308;DHT22;1666;48.898;9.182;2023-09-19T16:12:44;21.80;1.00
3308;DHT22;1666;48.898;9.182;2023-09-19T16:15:15;21.80;1.00
3308;DHT22;1666;48.898;9.182;2023-09-19T16:17:52;21.70;1.00
3308;DHT22;1666;48.898;9.182;2023-09-19T16:20:26;21.70;1.00
3308;DHT22;1666;48.898;9.182;2023-09-19T16:22:57;21.70;1.00
3308;DHT22;1666;48.898;9.182;2023-09-19T16:25:29;21.60;1.00
3308;DHT22;1666;48.898;9.182;2023-09-19T16:28:02;21.50;1.00
3308;DHT22;1666;48.898;9.182;2023-09-19T16:30:32;21.50;1.00
3308;DHT22;1666;48.898;9.182;2023-09-19T16:33:03;21.50;1.00
3308;DHT22;1666;48.898;9.182;2023-09-19T16:35:41;21.50;1.00
3308;DHT22;1666;48.898;9.182;2023-09-19T16:38:11;21.40;1.00
3308;DHT22;1666;48.898;9.182;2023-09-19T16:40:51;21.40;1.00
3308;DHT22;1666;48.898;9.182;2023-09-19T16:43:21;21.30;1.00
3308;DHT22;1666;48.898;9.182;2023-09-19T16:45:52;21.30;1.00
3308;DHT22;1666;48.898;9.182;2023-09-19T16:48:23;21.20;1.00
3308;DHT22;1666;48.898;9.182;2023-09-19T16:51:00;21.10;1.00
3308;DHT22;1666;48.898;9.182;2023-09-19T16:53:31;21.10;1.00
3308;DHT22;1666;48.898;9.182;2023-09-19T16:56:03;21.00;1.00
3308;DHT22;1666;48.898;9.182;2023-09-19T16:58:33;21.00;1.00
3308;DHT22;1666;48.898;9.182;2023-09-19T17:01:06;21.00;1.00
3308;DHT22;1666;48.898;9.182;2023-09-19T17:03:36;20.90;1.00